createdAt,value
2017-11-30T00:00:53.716Z,3.16
2017-11-30T00:01:53.707Z,3.07
2017-11-30T00:02:53.697Z,3.13
2017-11-30T00:03:53.690Z,3.13
2017-11-30T00:04:53.678Z,3.11
2017-11-30T00:05:53.672Z,3.13
2017-11-30T00:06:53.662Z,3.10
2017-11-30T00:07:53.655Z,3.16
2017-11-30T00:08:53.645Z,3.11
2017-11-30T00:09:53.639Z,3.13
2017-11-30T00:10:53.630Z,3.08
2017-11-30T00:11:53.624Z,3.03
2017-11-30T00:12:53.611Z,3.13
2017-11-30T00:13:53.605Z,3.11
2017-11-30T00:14:53.600Z,3.11
2017-11-30T00:15:53.591Z,3.16
2017-11-30T00:16:53.599Z,3.18
2017-11-30T00:17:53.573Z,3.14
2017-11-30T00:18:53.564Z,3.22
2017-11-30T00:19:53.558Z,3.10
2017-11-30T00:20:53.548Z,3.10
2017-11-30T00:21:53.540Z,3.11
2017-11-30T00:22:53.535Z,3.11
2017-11-30T00:23:53.523Z,3.08
2017-11-30T00:24:53.516Z,3.11
2017-11-30T00:25:53.509Z,3.08
2017-11-30T00:26:53.500Z,3.10
2017-11-30T00:27:53.495Z,3.11
2017-11-30T00:28:53.485Z,3.08
2017-11-30T00:29:53.476Z,3.10
2017-11-30T00:30:53.468Z,3.10
2017-11-30T00:31:53.465Z,3.08
2017-11-30T00:32:53.454Z,3.05
2017-11-30T00:33:53.443Z,3.11
2017-11-30T00:34:53.437Z,3.13
2017-11-30T00:35:53.429Z,3.13
2017-11-30T00:36:53.417Z,3.10
2017-11-30T00:37:53.412Z,3.08
2017-11-30T00:38:53.404Z,3.08
2017-11-30T00:39:53.395Z,3.07
2017-11-30T00:40:53.385Z,3.19
2017-11-30T00:41:53.377Z,3.10
2017-11-30T00:42:53.370Z,3.13
2017-11-30T00:43:53.361Z,3.11
2017-11-30T00:44:53.354Z,3.11
2017-11-30T00:45:53.347Z,3.13
2017-11-30T00:46:53.337Z,3.10
2017-11-30T00:47:53.330Z,3.08
2017-11-30T00:48:53.322Z,3.08
2017-11-30T00:49:53.314Z,3.08
2017-11-30T00:50:53.305Z,3.10
2017-11-30T00:51:53.298Z,3.10
2017-11-30T00:52:53.287Z,3.10
2017-11-30T00:53:53.282Z,3.04
2017-11-30T00:54:53.295Z,3.11
2017-11-30T00:55:53.266Z,3.04
2017-11-30T00:56:53.254Z,3.10
2017-11-30T00:57:53.249Z,3.10
2017-11-30T00:58:53.242Z,3.07
2017-11-30T00:59:53.237Z,3.08
2017-11-30T01:00:53.224Z,3.05
2017-11-30T01:01:53.216Z,3.10
2017-11-30T01:02:53.208Z,3.11
2017-11-30T01:03:53.200Z,3.13
2017-11-30T01:04:53.192Z,3.11
2017-11-30T01:05:53.182Z,3.10
2017-11-30T01:06:53.174Z,3.11
2017-11-30T01:07:53.167Z,3.13
2017-11-30T01:08:53.159Z,3.11
2017-11-30T01:09:53.150Z,3.10
2017-11-30T01:10:53.143Z,3.07
2017-11-30T01:11:53.134Z,3.10
2017-11-30T01:12:53.126Z,3.01
2017-11-30T01:13:53.118Z,3.07
2017-11-30T01:14:53.106Z,3.05
2017-11-30T01:15:53.102Z,3.03
2017-11-30T01:16:53.093Z,3.04
2017-11-30T01:17:53.085Z,3.07
2017-11-30T01:18:53.077Z,3.07
2017-11-30T01:19:53.071Z,3.08
2017-11-30T01:20:53.064Z,3.08
2017-11-30T01:21:53.053Z,3.07
2017-11-30T01:22:53.045Z,3.05
2017-11-30T01:23:53.037Z,3.08
2017-11-30T01:24:53.031Z,3.07
2017-11-30T01:25:53.023Z,3.04
2017-11-30T01:26:53.012Z,3.07
2017-11-30T01:27:53.005Z,3.10
2017-11-30T01:28:52.996Z,3.11
2017-11-30T01:29:52.988Z,3.16
2017-11-30T01:30:52.979Z,3.11
2017-11-30T01:31:52.970Z,3.10
2017-11-30T01:32:52.964Z,3.04
2017-11-30T01:33:52.956Z,3.05
2017-11-30T01:34:52.948Z,3.05
2017-11-30T01:35:52.939Z,3.08
2017-11-30T01:36:52.932Z,3.00
2017-11-30T01:37:52.925Z,3.07
2017-11-30T01:38:52.914Z,3.11
2017-11-30T01:39:52.907Z,3.05
2017-11-30T01:40:52.899Z,3.07
2017-11-30T01:41:52.887Z,3.03
2017-11-30T01:42:52.881Z,3.04
2017-11-30T01:43:52.879Z,2.97
2017-11-30T01:44:52.864Z,2.95
2017-11-30T01:45:52.856Z,2.98
2017-11-30T01:46:52.849Z,2.98
2017-11-30T01:47:52.846Z,2.97
2017-11-30T01:48:52.835Z,2.89
2017-11-30T01:49:52.826Z,2.85
2017-11-30T01:50:52.817Z,2.90
2017-11-30T01:51:52.811Z,2.90
2017-11-30T01:52:52.799Z,2.89
2017-11-30T01:53:52.790Z,2.79
2017-11-30T01:54:52.791Z,2.86
2017-11-30T01:55:52.775Z,2.89
2017-11-30T01:56:52.768Z,2.77
2017-11-30T01:57:52.757Z,2.77
2017-11-30T01:58:52.749Z,2.86
2017-11-30T01:59:52.739Z,2.77
2017-11-30T02:00:52.733Z,2.86
2017-11-30T02:01:52.725Z,2.83
2017-11-30T02:02:52.721Z,2.82
2017-11-30T02:03:52.709Z,2.82
2017-11-30T02:04:52.701Z,2.77
2017-11-30T02:05:52.692Z,2.72
2017-11-30T02:06:52.686Z,2.75
2017-11-30T02:07:52.677Z,2.79
2017-11-30T02:08:52.667Z,2.79
2017-11-30T02:09:52.660Z,2.82
2017-11-30T02:10:52.652Z,2.74
2017-11-30T02:11:52.644Z,2.82
2017-11-30T02:12:52.678Z,2.62
2017-11-30T02:13:52.627Z,2.67
2017-11-30T02:14:52.620Z,2.71
2017-11-30T02:15:52.611Z,2.77
2017-11-30T02:16:52.599Z,2.74
2017-11-30T02:17:52.593Z,2.69
2017-11-30T02:18:52.583Z,2.68
2017-11-30T02:19:52.575Z,2.77
2017-11-30T02:20:52.567Z,2.65
2017-11-30T02:21:52.567Z,2.61
2017-11-30T02:22:52.543Z,2.64
2017-11-30T02:23:52.547Z,2.65
2017-11-30T02:24:52.535Z,2.65
2017-11-30T02:25:52.527Z,2.60
2017-11-30T02:26:52.518Z,2.69
2017-11-30T02:27:52.512Z,2.61
2017-11-30T02:28:52.502Z,2.62
2017-11-30T02:29:52.495Z,2.62
2017-11-30T02:30:52.488Z,2.67
2017-11-30T02:31:52.481Z,2.65
2017-11-30T02:32:52.470Z,2.60
2017-11-30T02:33:52.461Z,2.67
2017-11-30T02:34:52.452Z,2.64
2017-11-30T02:35:52.447Z,2.61
2017-11-30T02:36:52.440Z,2.57
2017-11-30T02:37:52.427Z,2.64
2017-11-30T02:38:52.420Z,2.64
2017-11-30T02:39:52.411Z,2.62
2017-11-30T02:40:52.402Z,2.56
2017-11-30T02:41:52.395Z,2.61
2017-11-30T02:42:52.386Z,2.61
2017-11-30T02:43:52.383Z,2.64
2017-11-30T02:44:52.370Z,2.64
2017-11-30T02:45:52.364Z,2.62
2017-11-30T02:46:52.357Z,2.74
2017-11-30T02:47:52.349Z,2.72
2017-11-30T02:48:52.338Z,2.74
2017-11-30T02:49:52.329Z,2.62
2017-11-30T02:50:52.325Z,2.72
2017-11-30T02:51:52.311Z,2.68
2017-11-30T02:52:52.302Z,2.77
2017-11-30T02:53:52.293Z,2.74
2017-11-30T02:54:52.291Z,2.71
2017-11-30T02:55:52.281Z,2.74
2017-11-30T02:56:52.270Z,2.72
2017-11-30T02:57:52.259Z,2.68
2017-11-30T02:58:52.253Z,2.65
2017-11-30T02:59:52.249Z,2.71
2017-11-30T03:00:52.237Z,2.72
2017-11-30T03:01:52.228Z,2.67
2017-11-30T03:02:52.220Z,2.72
2017-11-30T03:03:52.213Z,2.68
2017-11-30T03:04:52.205Z,2.69
2017-11-30T03:05:52.195Z,2.77
2017-11-30T03:06:52.188Z,2.75
2017-11-30T03:07:52.182Z,2.74
2017-11-30T03:08:52.171Z,2.62
2017-11-30T03:09:52.163Z,2.65
2017-11-30T03:10:52.155Z,2.74
2017-11-30T03:11:52.147Z,2.65
2017-11-30T03:12:52.139Z,2.69
2017-11-30T03:13:52.130Z,2.69
2017-11-30T03:14:52.121Z,2.68
2017-11-30T03:15:52.114Z,2.68
2017-11-30T03:16:52.104Z,2.74
2017-11-30T03:17:52.095Z,2.77
2017-11-30T03:18:52.090Z,2.77
2017-11-30T03:19:52.079Z,2.79
2017-11-30T03:20:52.073Z,2.75
2017-11-30T03:21:52.063Z,2.77
2017-11-30T03:22:52.056Z,2.83
2017-11-30T03:23:52.047Z,2.77
2017-11-30T03:24:52.039Z,2.80
2017-11-30T03:25:52.036Z,2.72
2017-11-30T03:26:52.023Z,2.75
2017-11-30T03:27:52.014Z,2.74
2017-11-30T03:28:52.009Z,2.61
2017-11-30T03:29:51.999Z,2.69
2017-11-30T03:30:51.994Z,2.68
2017-11-30T03:31:51.980Z,2.67
2017-11-30T03:32:51.971Z,2.67
2017-11-30T03:33:51.965Z,2.57
2017-11-30T03:34:51.958Z,2.46
2017-11-30T03:35:51.976Z,2.47
2017-11-30T03:36:51.942Z,2.44
2017-11-30T03:37:51.933Z,2.57
2017-11-30T03:38:51.927Z,2.47
2017-11-30T03:39:51.917Z,2.57
2017-11-30T03:40:51.908Z,2.56
2017-11-30T03:41:51.899Z,2.61
2017-11-30T03:42:51.889Z,2.65
2017-11-30T03:43:51.881Z,2.71
2017-11-30T03:44:51.873Z,2.64
2017-11-30T03:45:51.864Z,2.72
2017-11-30T03:46:51.859Z,2.74
2017-11-30T03:47:51.847Z,2.69
2017-11-30T03:48:51.844Z,2.67
2017-11-30T03:49:51.840Z,2.65
2017-11-30T03:50:51.824Z,2.74
2017-11-30T03:51:51.817Z,2.64
2017-11-30T03:52:51.807Z,2.77
2017-11-30T03:53:51.798Z,2.74
2017-11-30T03:54:51.792Z,2.67
2017-11-30T03:55:51.785Z,2.74
2017-11-30T03:56:51.775Z,2.80
2017-11-30T03:57:51.765Z,2.79
2017-11-30T03:58:51.760Z,2.77
2017-11-30T03:59:51.748Z,2.77
2017-11-30T04:00:51.732Z,2.79
2017-11-30T04:01:51.730Z,2.77
2017-11-30T04:02:51.726Z,2.71
2017-11-30T04:03:51.718Z,2.85
2017-11-30T04:04:51.709Z,2.82
2017-11-30T04:05:51.699Z,2.69
2017-11-30T04:06:51.696Z,2.77
2017-11-30T04:07:51.682Z,2.67
2017-11-30T04:08:51.676Z,2.67
2017-11-30T04:09:51.668Z,2.65
2017-11-30T04:10:51.660Z,2.71
2017-11-30T04:11:51.655Z,2.68
2017-11-30T04:12:51.646Z,2.67
2017-11-30T04:13:51.638Z,2.60
2017-11-30T04:14:51.626Z,2.57
2017-11-30T04:15:51.618Z,2.57
2017-11-30T04:16:51.648Z,2.64
2017-11-30T04:17:51.603Z,2.46
2017-11-30T04:18:51.593Z,2.56
2017-11-30T04:19:51.586Z,2.50
2017-11-30T04:20:51.576Z,2.47
2017-11-30T04:21:51.567Z,2.50
2017-11-30T04:22:51.558Z,2.53
2017-11-30T04:23:51.554Z,2.49
2017-11-30T04:24:51.545Z,2.44
2017-11-30T04:25:51.535Z,2.47
2017-11-30T04:26:51.533Z,2.39
2017-11-30T04:27:51.524Z,2.50
2017-11-30T04:28:51.509Z,2.44
2017-11-30T04:29:51.502Z,2.46
2017-11-30T04:30:51.495Z,2.43
2017-11-30T04:31:51.485Z,2.44
2017-11-30T04:32:51.479Z,2.35
2017-11-30T04:33:51.471Z,2.33
2017-11-30T04:34:51.463Z,2.28
2017-11-30T04:35:51.470Z,2.22
2017-11-30T04:36:51.445Z,2.26
2017-11-30T04:37:51.437Z,2.15
2017-11-30T04:38:51.430Z,2.28
2017-11-30T04:39:51.420Z,2.15
2017-11-30T04:40:51.410Z,2.26
2017-11-30T04:41:51.405Z,2.29
2017-11-30T04:42:51.396Z,2.32
2017-11-30T04:43:51.387Z,2.26
2017-11-30T04:44:51.379Z,2.31
2017-11-30T04:45:51.369Z,2.36
2017-11-30T04:46:51.362Z,2.38
2017-11-30T04:47:51.353Z,2.38
2017-11-30T04:48:51.343Z,2.31
2017-11-30T04:49:51.337Z,2.26
2017-11-30T04:50:51.327Z,2.18
2017-11-30T04:51:51.323Z,2.15
2017-11-30T04:52:51.310Z,2.20
2017-11-30T04:53:51.302Z,2.11
2017-11-30T04:54:51.292Z,2.18
2017-11-30T04:55:51.286Z,2.20
2017-11-30T04:56:51.276Z,2.20
2017-11-30T04:57:51.267Z,2.14
2017-11-30T04:58:51.259Z,2.08
2017-11-30T04:59:51.258Z,2.13
2017-11-30T05:00:51.242Z,2.15
2017-11-30T05:01:51.240Z,2.14
2017-11-30T05:02:51.228Z,2.17
2017-11-30T05:03:51.217Z,2.14
2017-11-30T05:04:51.210Z,2.10
2017-11-30T05:05:51.207Z,2.15
2017-11-30T05:06:51.190Z,2.04
2017-11-30T05:07:51.187Z,2.10
2017-11-30T05:08:51.173Z,1.92
2017-11-30T05:09:51.164Z,1.97
2017-11-30T05:10:51.157Z,2.00
2017-11-30T05:11:51.148Z,2.06
2017-11-30T05:12:51.141Z,2.08
2017-11-30T05:13:51.131Z,2.07
2017-11-30T05:14:51.121Z,2.07
2017-11-30T05:15:51.114Z,2.07
2017-11-30T05:16:51.102Z,1.94
2017-11-30T05:17:51.096Z,1.99
2017-11-30T05:18:51.093Z,1.94
2017-11-30T05:19:51.082Z,1.94
2017-11-30T05:20:51.068Z,1.95
2017-11-30T05:21:51.062Z,1.95
2017-11-30T05:22:51.051Z,1.87
2017-11-30T05:23:51.045Z,1.92
2017-11-30T05:24:51.038Z,1.87
2017-11-30T05:25:51.028Z,1.89
2017-11-30T05:26:51.018Z,1.78
2017-11-30T05:27:51.011Z,1.77
2017-11-30T05:28:51.001Z,1.74
2017-11-30T05:29:50.992Z,1.89
2017-11-30T05:30:50.985Z,1.77
2017-11-30T05:31:50.975Z,1.85
2017-11-30T05:32:50.966Z,1.73
2017-11-30T05:33:50.958Z,1.81
2017-11-30T05:34:50.951Z,1.73
2017-11-30T05:35:50.940Z,1.71
2017-11-30T05:36:50.930Z,1.77
2017-11-30T05:37:50.923Z,1.85
2017-11-30T05:38:50.915Z,1.87
2017-11-30T05:39:50.906Z,1.85
2017-11-30T05:40:50.898Z,1.87
2017-11-30T05:41:50.888Z,1.78
2017-11-30T05:42:50.880Z,1.81
2017-11-30T05:43:50.873Z,1.74
2017-11-30T05:44:50.862Z,1.71
2017-11-30T05:45:50.868Z,1.66
2017-11-30T05:46:50.852Z,1.73
2017-11-30T05:47:50.836Z,1.70
2017-11-30T05:48:50.829Z,1.68
2017-11-30T05:49:50.820Z,1.58
2017-11-30T05:50:50.811Z,1.60
2017-11-30T05:51:50.803Z,1.60
2017-11-30T05:52:50.797Z,1.50
2017-11-30T05:53:50.787Z,1.49
2017-11-30T05:54:50.776Z,1.34
2017-11-30T05:55:50.768Z,1.31
2017-11-30T05:56:50.760Z,1.32
2017-11-30T05:57:50.750Z,1.20
2017-11-30T05:58:50.742Z,1.17
2017-11-30T05:59:50.732Z,1.16
2017-11-30T06:00:50.723Z,1.23
2017-11-30T06:01:50.715Z,1.23
2017-11-30T06:02:50.707Z,1.28
2017-11-30T06:03:50.699Z,1.22
2017-11-30T06:04:50.691Z,1.22
2017-11-30T06:05:50.681Z,1.35
2017-11-30T06:06:50.671Z,1.20
2017-11-30T06:07:50.662Z,1.34
2017-11-30T06:08:50.652Z,1.34
2017-11-30T06:09:50.646Z,1.40
2017-11-30T06:10:50.636Z,1.34
2017-11-30T06:11:50.632Z,1.40
2017-11-30T06:12:50.618Z,1.35
2017-11-30T06:13:50.609Z,1.37
2017-11-30T06:14:50.601Z,1.41
2017-11-30T06:15:50.591Z,1.31
2017-11-30T06:16:50.583Z,1.38
2017-11-30T06:17:50.577Z,1.35
2017-11-30T06:18:50.565Z,1.34
2017-11-30T06:19:50.557Z,1.35
2017-11-30T06:20:50.548Z,1.32
2017-11-30T06:21:50.540Z,1.23
2017-11-30T06:22:50.528Z,1.20
2017-11-30T06:23:50.520Z,1.28
2017-11-30T06:24:50.513Z,1.22
2017-11-30T06:25:50.504Z,1.23
2017-11-30T06:26:50.496Z,1.24
2017-11-30T06:27:50.488Z,1.23
2017-11-30T06:28:50.478Z,1.16
2017-11-30T06:29:50.469Z,1.20
2017-11-30T06:30:50.460Z,1.24
2017-11-30T06:31:50.458Z,1.23
2017-11-30T06:32:50.441Z,1.20
2017-11-30T06:33:50.434Z,1.26
2017-11-30T06:34:50.425Z,1.20
2017-11-30T06:35:50.416Z,1.31
2017-11-30T06:36:50.406Z,1.38
2017-11-30T06:37:50.398Z,1.41
2017-11-30T06:38:50.390Z,1.49
2017-11-30T06:39:50.379Z,1.48
2017-11-30T06:40:50.372Z,1.45
2017-11-30T06:41:50.363Z,1.53
2017-11-30T06:42:50.356Z,1.48
2017-11-30T06:43:50.345Z,1.49
2017-11-30T06:44:50.340Z,1.50
2017-11-30T06:45:50.327Z,1.42
2017-11-30T06:46:50.323Z,1.44
2017-11-30T06:47:50.311Z,1.45
2017-11-30T06:48:50.302Z,1.50
2017-11-30T06:49:50.295Z,1.49
2017-11-30T06:50:50.284Z,1.44
2017-11-30T06:51:50.275Z,1.41
2017-11-30T06:52:50.263Z,1.45
2017-11-30T06:53:50.256Z,1.45
2017-11-30T06:54:50.249Z,1.48
2017-11-30T06:55:50.241Z,1.60
2017-11-30T06:56:50.229Z,1.63
2017-11-30T06:57:50.223Z,1.58
2017-11-30T06:58:50.214Z,1.58
2017-11-30T06:59:50.205Z,1.58
2017-11-30T07:00:50.195Z,1.67
2017-11-30T07:01:50.187Z,1.63
2017-11-30T07:02:50.176Z,1.60
2017-11-30T07:03:50.166Z,1.56
2017-11-30T07:04:50.159Z,1.56
2017-11-30T07:05:50.150Z,1.59
2017-11-30T07:06:50.143Z,1.59
2017-11-30T07:07:50.145Z,1.59
2017-11-30T07:08:50.124Z,1.52
2017-11-30T07:09:50.115Z,1.56
2017-11-30T07:10:50.107Z,1.45
2017-11-30T07:11:50.099Z,1.52
2017-11-30T07:12:50.089Z,1.44
2017-11-30T07:13:50.081Z,1.41
2017-11-30T07:14:50.070Z,1.48
2017-11-30T07:15:50.061Z,1.32
2017-11-30T07:16:50.052Z,1.32
2017-11-30T07:17:50.043Z,1.38
2017-11-30T07:18:50.037Z,1.32
2017-11-30T07:19:50.029Z,1.23
2017-11-30T07:20:50.018Z,1.24
2017-11-30T07:21:50.009Z,1.12
2017-11-30T07:22:49.999Z,1.16
2017-11-30T07:23:49.992Z,1.08
2017-11-30T07:24:49.985Z,1.13
2017-11-30T07:25:49.973Z,1.10
2017-11-30T07:26:49.963Z,1.05
2017-11-30T07:27:49.959Z,1.12
2017-11-30T07:28:49.946Z,1.14
2017-11-30T07:29:49.937Z,1.02
2017-11-30T07:30:49.930Z,1.14
2017-11-30T07:31:49.925Z,1.16
2017-11-30T07:32:49.911Z,1.13
2017-11-30T07:33:49.904Z,1.23
2017-11-30T07:34:49.894Z,1.26
2017-11-30T07:35:49.888Z,1.30
2017-11-30T07:36:49.874Z,1.35
2017-11-30T07:37:49.866Z,1.34
2017-11-30T07:38:49.868Z,1.45
2017-11-30T07:39:49.851Z,1.42
2017-11-30T07:40:49.839Z,1.50
2017-11-30T07:41:49.829Z,1.49
2017-11-30T07:42:49.825Z,1.60
2017-11-30T07:43:49.813Z,1.66
2017-11-30T07:44:49.804Z,1.52
2017-11-30T07:45:49.794Z,1.63
2017-11-30T07:46:49.787Z,1.58
2017-11-30T07:47:49.780Z,1.60
2017-11-30T07:48:49.767Z,1.60
2017-11-30T07:49:49.767Z,1.67
2017-11-30T07:50:49.751Z,1.76
2017-11-30T07:51:49.742Z,1.67
2017-11-30T07:52:49.736Z,1.80
2017-11-30T07:53:49.725Z,1.87
2017-11-30T07:54:49.715Z,1.77
2017-11-30T07:55:49.707Z,1.85
2017-11-30T07:56:49.702Z,1.78
2017-11-30T07:57:49.689Z,1.88
2017-11-30T07:58:49.682Z,1.88
2017-11-30T07:59:49.670Z,1.91
2017-11-30T08:00:49.669Z,1.92
2017-11-30T08:01:49.653Z,1.97
2017-11-30T08:02:49.651Z,2.07
2017-11-30T08:03:49.639Z,2.11
2017-11-30T08:04:49.627Z,2.06
2017-11-30T08:05:49.626Z,2.20
2017-11-30T08:06:49.612Z,2.15
2017-11-30T08:07:49.601Z,2.15
2017-11-30T08:08:49.593Z,2.15
2017-11-30T08:09:49.581Z,2.25
2017-11-30T08:10:49.576Z,2.24
2017-11-30T08:11:49.569Z,2.28
2017-11-30T08:12:49.558Z,2.32
2017-11-30T08:13:49.549Z,2.28
2017-11-30T08:14:49.541Z,2.26
2017-11-30T08:15:49.534Z,2.28
2017-11-30T08:16:49.525Z,2.29
2017-11-30T08:17:49.516Z,2.24
2017-11-30T08:18:49.508Z,2.25
2017-11-30T08:19:49.497Z,2.26
2017-11-30T08:20:49.488Z,2.25
2017-11-30T08:21:49.480Z,2.22
2017-11-30T08:22:49.470Z,2.25
2017-11-30T08:23:49.474Z,2.15
2017-11-30T08:24:49.456Z,2.22
2017-11-30T08:25:49.446Z,2.18
2017-11-30T08:26:49.434Z,2.17
2017-11-30T08:27:49.429Z,2.25
2017-11-30T08:28:49.418Z,2.15
2017-11-30T08:29:49.411Z,2.25
2017-11-30T08:30:49.403Z,2.28
2017-11-30T08:31:49.395Z,2.26
2017-11-30T08:32:49.386Z,2.18
2017-11-30T08:33:49.377Z,2.28
2017-11-30T08:34:49.370Z,2.31
2017-11-30T08:35:49.361Z,2.35
2017-11-30T08:36:49.352Z,2.36
2017-11-30T08:37:49.343Z,2.39
2017-11-30T08:38:49.350Z,2.44
2017-11-30T08:39:49.352Z,2.43
2017-11-30T08:40:49.318Z,2.43
2017-11-30T08:41:49.311Z,2.39
2017-11-30T08:42:49.303Z,2.39
2017-11-30T08:43:49.294Z,2.39
2017-11-30T08:44:49.284Z,2.43
2017-11-30T08:45:49.281Z,2.42
2017-11-30T08:46:49.266Z,2.46
2017-11-30T08:47:49.259Z,2.47
2017-11-30T08:48:49.252Z,2.43
2017-11-30T08:49:49.257Z,2.46
2017-11-30T08:50:49.227Z,2.49
2017-11-30T08:51:49.226Z,2.49
2017-11-30T08:52:49.225Z,2.49
2017-11-30T08:53:49.210Z,2.46
2017-11-30T08:54:49.200Z,2.49
2017-11-30T08:55:49.192Z,2.50
2017-11-30T08:56:49.188Z,2.44
2017-11-30T08:57:49.175Z,2.49
2017-11-30T08:58:49.174Z,2.50
2017-11-30T08:59:49.159Z,2.49
2017-11-30T09:00:49.152Z,2.56
2017-11-30T09:01:49.142Z,2.46
2017-11-30T09:02:49.129Z,2.51
2017-11-30T09:03:49.126Z,2.49
2017-11-30T09:04:49.124Z,2.60
2017-11-30T09:05:49.108Z,2.60
2017-11-30T09:06:49.102Z,2.65
2017-11-30T09:07:49.093Z,2.61
2017-11-30T09:08:49.090Z,2.60
2017-11-30T09:09:49.075Z,2.65
2017-11-30T09:10:49.069Z,2.61
2017-11-30T09:11:49.058Z,2.60
2017-11-30T09:12:49.050Z,2.80
2017-11-30T09:13:49.043Z,2.79
2017-11-30T09:14:49.036Z,2.86
2017-11-30T09:15:49.032Z,2.71
2017-11-30T09:16:49.019Z,2.82
2017-11-30T09:17:49.009Z,2.93
2017-11-30T09:18:49.001Z,2.98
2017-11-30T09:19:48.993Z,3.00
2017-11-30T09:20:48.984Z,3.11
2017-11-30T09:21:48.977Z,3.11
2017-11-30T09:22:48.972Z,3.29
2017-11-30T09:23:48.961Z,3.31
2017-11-30T09:24:48.951Z,3.22
2017-11-30T09:25:48.943Z,3.29
2017-11-30T09:26:48.937Z,3.25
2017-11-30T09:27:48.929Z,3.40
2017-11-30T09:28:48.925Z,3.40
2017-11-30T09:29:48.910Z,3.37
2017-11-30T09:30:48.904Z,3.37
2017-11-30T09:31:48.896Z,3.34
2017-11-30T09:32:48.887Z,3.41
2017-11-30T09:33:48.877Z,3.44
2017-11-30T09:34:48.871Z,3.50
2017-11-30T09:35:48.864Z,3.53
2017-11-30T09:36:48.855Z,3.53
2017-11-30T09:37:48.847Z,3.56
2017-11-30T09:38:48.840Z,3.59
2017-11-30T09:39:48.831Z,3.58
2017-11-30T09:40:48.828Z,3.68
2017-11-30T09:41:48.818Z,3.63
2017-11-30T09:42:48.810Z,3.58
2017-11-30T09:43:48.820Z,3.53
2017-11-30T09:44:48.808Z,3.50
2017-11-30T09:45:48.785Z,3.60
2017-11-30T09:46:48.775Z,3.74
2017-11-30T09:47:48.758Z,3.60
2017-11-30T09:48:48.749Z,3.58
2017-11-30T09:49:48.747Z,3.59
2017-11-30T09:50:48.740Z,3.65
2017-11-30T09:51:48.736Z,3.60
2017-11-30T09:52:48.728Z,3.70
2017-11-30T09:53:48.721Z,3.70
2017-11-30T09:54:48.711Z,3.68
2017-11-30T09:55:48.713Z,3.68
2017-11-30T09:56:48.703Z,3.68
2017-11-30T09:57:48.693Z,3.69
2017-11-30T09:58:48.693Z,3.68
2017-11-30T09:59:48.683Z,3.70
2017-11-30T10:00:48.699Z,3.66
2017-11-30T10:01:48.657Z,3.69
2017-11-30T10:02:48.647Z,3.59
2017-11-30T10:03:48.650Z,3.55
2017-11-30T10:04:48.648Z,3.59
2017-11-30T10:05:48.628Z,3.58
2017-11-30T10:06:48.618Z,3.59
2017-11-30T10:07:48.610Z,3.62
2017-11-30T10:08:48.602Z,3.56
2017-11-30T10:09:48.596Z,3.63
2017-11-30T10:10:48.586Z,3.73
2017-11-30T10:11:48.579Z,3.62
2017-11-30T10:12:48.572Z,3.58
2017-11-30T10:13:48.564Z,3.59
2017-11-30T10:14:48.561Z,3.59
2017-11-30T10:15:48.562Z,3.59
2017-11-30T10:16:48.539Z,3.55
2017-11-30T10:17:48.534Z,3.63
2017-11-30T10:18:48.523Z,3.45
2017-11-30T10:19:48.514Z,3.47
2017-11-30T10:20:48.509Z,3.65
2017-11-30T10:21:48.501Z,3.58
2017-11-30T10:22:48.484Z,3.60
2017-11-30T10:23:48.485Z,3.74
2017-11-30T10:24:48.477Z,3.77
2017-11-30T10:25:48.469Z,3.84
2017-11-30T10:26:48.466Z,3.86
2017-11-30T10:27:48.453Z,3.86
2017-11-30T10:28:48.448Z,3.87
2017-11-30T10:29:48.437Z,3.81
2017-11-30T10:30:48.432Z,3.76
2017-11-30T10:31:48.422Z,3.87
2017-11-30T10:32:48.422Z,3.78
2017-11-30T10:33:48.409Z,3.74
2017-11-30T10:34:48.400Z,3.77
2017-11-30T10:35:48.391Z,3.81
2017-11-30T10:36:48.383Z,3.81
2017-11-30T10:37:48.378Z,3.69
2017-11-30T10:38:48.372Z,3.80
2017-11-30T10:39:48.360Z,3.73
2017-11-30T10:40:48.353Z,3.70
2017-11-30T10:41:48.346Z,3.70
2017-11-30T10:42:48.341Z,3.74
2017-11-30T10:43:48.333Z,3.66
2017-11-30T10:44:48.341Z,3.69
2017-11-30T10:45:48.319Z,3.77
2017-11-30T10:46:48.306Z,3.73
2017-11-30T10:47:48.300Z,3.62
2017-11-30T10:48:48.291Z,3.74
2017-11-30T10:49:48.283Z,3.68
2017-11-30T10:50:48.280Z,3.70
2017-11-30T10:51:48.269Z,3.76
2017-11-30T10:52:48.261Z,3.76
2017-11-30T10:53:48.252Z,3.69
2017-11-30T10:54:48.244Z,3.80
2017-11-30T10:55:48.238Z,3.77
2017-11-30T10:56:48.228Z,3.65
2017-11-30T10:57:48.226Z,3.69
2017-11-30T10:58:48.214Z,3.74
2017-11-30T10:59:48.206Z,3.77
2017-11-30T11:00:48.197Z,3.74
2017-11-30T11:01:48.189Z,3.77
2017-11-30T11:02:48.183Z,3.80
2017-11-30T11:03:48.175Z,3.70
2017-11-30T11:04:48.166Z,3.77
2017-11-30T11:05:48.159Z,3.78
2017-11-30T11:06:48.153Z,3.66
2017-11-30T11:07:48.144Z,3.83
2017-11-30T11:08:48.136Z,3.76
2017-11-30T11:09:48.131Z,3.80
2017-11-30T11:10:48.122Z,3.80
2017-11-30T11:11:48.115Z,3.78
2017-11-30T11:12:48.103Z,3.84
2017-11-30T11:13:48.096Z,3.78
2017-11-30T11:14:48.092Z,3.86
2017-11-30T11:15:48.085Z,3.80
2017-11-30T11:16:48.076Z,3.92
2017-11-30T11:17:48.068Z,3.92
2017-11-30T11:18:48.059Z,3.91
2017-11-30T11:19:48.064Z,3.94
2017-11-30T11:20:48.045Z,3.99
2017-11-30T11:21:48.036Z,4.06
2017-11-30T11:22:48.028Z,4.14
2017-11-30T11:23:48.024Z,4.10
2017-11-30T11:24:48.015Z,4.06
2017-11-30T11:25:48.009Z,4.04
2017-11-30T11:26:48.000Z,4.10
2017-11-30T11:27:47.990Z,4.06
2017-11-30T11:28:47.986Z,4.08
2017-11-30T11:29:47.973Z,3.96
2017-11-30T11:30:47.970Z,4.05
2017-11-30T11:31:47.963Z,3.98
2017-11-30T11:32:47.954Z,3.95
2017-11-30T11:33:47.946Z,3.96
2017-11-30T11:34:47.939Z,3.96
2017-11-30T11:35:47.931Z,4.06
2017-11-30T11:36:47.924Z,4.12
2017-11-30T11:37:47.933Z,4.16
2017-11-30T11:38:47.905Z,4.13
2017-11-30T11:39:47.902Z,4.30
2017-11-30T11:40:47.892Z,4.24
2017-11-30T11:41:47.885Z,4.24
2017-11-30T11:42:47.878Z,4.28
2017-11-30T11:43:47.871Z,4.38
2017-11-30T11:44:47.866Z,4.37
2017-11-30T11:45:47.856Z,4.41
2017-11-30T11:46:47.849Z,4.40
2017-11-30T11:47:47.839Z,4.45
2017-11-30T11:48:47.832Z,4.52
2017-11-30T11:49:47.826Z,4.56
2017-11-30T11:50:47.820Z,4.50
2017-11-30T11:51:47.813Z,4.55
2017-11-30T11:52:47.804Z,4.75
2017-11-30T11:53:47.798Z,4.67
2017-11-30T11:54:47.794Z,4.78
2017-11-30T11:55:47.792Z,4.78
2017-11-30T11:56:47.774Z,4.70
2017-11-30T11:57:47.770Z,4.55
2017-11-30T11:58:47.761Z,4.55
2017-11-30T11:59:47.759Z,4.58
2017-11-30T12:00:47.744Z,4.55
2017-11-30T12:01:47.739Z,4.56
2017-11-30T12:02:47.732Z,4.60
2017-11-30T12:03:47.726Z,4.53
2017-11-30T12:04:47.716Z,4.58
2017-11-30T12:05:47.711Z,4.58
2017-11-30T12:06:47.700Z,4.53
2017-11-30T12:07:47.697Z,4.52
2017-11-30T12:08:47.688Z,4.58
2017-11-30T12:09:47.685Z,4.56
2017-11-30T12:10:47.672Z,4.52
2017-11-30T12:11:47.669Z,4.56
2017-11-30T12:12:47.658Z,4.50
2017-11-30T12:13:47.653Z,4.49
2017-11-30T12:14:47.645Z,4.48
2017-11-30T12:15:47.637Z,4.55
2017-11-30T12:16:47.633Z,4.52
2017-11-30T12:17:47.623Z,4.55
2017-11-30T12:18:47.614Z,4.50
2017-11-30T12:19:47.608Z,4.56
2017-11-30T12:20:47.602Z,4.63
2017-11-30T12:21:47.755Z,4.60
2017-11-30T12:22:47.587Z,4.66
2017-11-30T12:23:47.579Z,4.63
2017-11-30T12:24:47.571Z,4.66
2017-11-30T12:25:47.563Z,4.78
2017-11-30T12:26:47.558Z,4.78
2017-11-30T12:27:47.554Z,4.68
2017-11-30T12:28:47.543Z,4.71
2017-11-30T12:29:47.534Z,4.73
2017-11-30T12:30:47.529Z,4.73
2017-11-30T12:31:47.530Z,4.73
2017-11-30T12:32:47.511Z,4.78
2017-11-30T12:33:47.506Z,4.73
2017-11-30T12:34:47.496Z,4.62
2017-11-30T12:35:47.490Z,4.77
2017-11-30T12:36:47.494Z,4.80
2017-11-30T12:37:47.473Z,4.84
2017-11-30T12:38:47.469Z,4.73
2017-11-30T12:39:47.460Z,4.75
2017-11-30T12:40:47.453Z,4.77
2017-11-30T12:41:47.446Z,4.75
2017-11-30T12:42:47.441Z,4.77
2017-11-30T12:43:47.433Z,4.82
2017-11-30T12:44:47.423Z,4.89
2017-11-30T12:45:47.417Z,5.00
2017-11-30T12:46:47.411Z,5.11
2017-11-30T12:47:47.413Z,4.97
2017-11-30T12:48:47.407Z,4.97
2017-11-30T12:49:47.389Z,5.08
2017-11-30T12:50:47.381Z,5.14
2017-11-30T12:51:47.375Z,5.05
2017-11-30T12:52:47.366Z,5.08
2017-11-30T12:53:47.359Z,5.10
2017-11-30T12:54:47.348Z,5.21
2017-11-30T12:55:47.346Z,5.25
2017-11-30T12:56:47.337Z,5.29
2017-11-30T12:57:47.329Z,5.25
2017-11-30T12:58:47.317Z,5.20
2017-11-30T12:59:47.320Z,5.29
2017-11-30T13:00:47.326Z,5.18
2017-11-30T13:01:47.300Z,5.17
2017-11-30T13:02:47.292Z,5.17
2017-11-30T13:03:47.285Z,5.15
2017-11-30T13:04:47.280Z,5.12
2017-11-30T13:05:47.271Z,5.15
2017-11-30T13:06:47.267Z,5.17
2017-11-30T13:07:47.257Z,5.21
2017-11-30T13:08:47.250Z,5.04
2017-11-30T13:09:47.243Z,5.08
2017-11-30T13:10:47.237Z,5.08
2017-11-30T13:11:47.228Z,5.17
2017-11-30T13:12:47.220Z,5.18
2017-11-30T13:13:47.214Z,5.17
2017-11-30T13:14:47.208Z,5.21
2017-11-30T13:15:47.201Z,5.14
2017-11-30T13:16:47.195Z,5.18
2017-11-30T13:17:47.193Z,5.18
2017-11-30T13:18:47.180Z,5.21